sensor_id;sensor_type;location;lat;lon;timestamp;P1;durP1;ratioP1;P2;durP2;ratioP2
62056;SDS011;48016;50.284;18.860;2022-10-16T00:01:15;17.80;;;13.40;;
62056;SDS011;48016;50.284;18.860;2022-10-16T00:03:43;20.40;;;13.80;;
62056;SDS011;48016;50.284;18.860;2022-10-16T00:06:11;22.30;;;14.20;;
62056;SDS011;48016;50.284;18.860;2022-10-16T00:08:38;21.90;;;14.80;;
62056;SDS011;48016;50.284;18.860;2022-10-16T00:11:09;18.90;;;14.00;;
62056;SDS011;48016;50.284;18.860;2022-10-16T00:13:41;20.30;;;14.30;;
62056;SDS011;48016;50.284;18.860;2022-10-16T00:16:09;20.10;;;13.80;;
62056;SDS011;48016;50.284;18.860;2022-10-16T00:18:37;21.50;;;13.70;;
62056;SDS011;48016;50.284;18.860;2022-10-16T00:21:05;19.70;;;13.90;;
62056;SDS011;48016;50.284;18.860;2022-10-16T00:23:34;19.60;;;13.80;;
62056;SDS011;48016;50.284;18.860;2022-10-16T00:26:02;23.30;;;14.60;;
62056;SDS011;48016;50.284;18.860;2022-10-16T00:28:31;25.70;;;15.10;;
62056;SDS011;48016;50.284;18.860;2022-10-16T00:30:58;19.50;;;14.40;;
62056;SDS011;48016;50.284;18.860;2022-10-16T00:33:25;22.60;;;15.00;;
62056;SDS011;48016;50.284;18.860;2022-10-16T00:35:51;20.50;;;14.00;;
62056;SDS011;48016;50.284;18.860;2022-10-16T00:38:18;23.20;;;15.70;;
62056;SDS011;48016;50.284;18.860;2022-10-16T00:40:44;22.90;;;16.20;;
62056;SDS011;48016;50.284;18.860;2022-10-16T00:43:32;25.00;;;16.30;;
62056;SDS011;48016;50.284;18.860;2022-10-16T00:46:17;23.60;;;15.90;;
62056;SDS011;48016;50.284;18.860;2022-10-16T00:48:52;23.30;;;16.10;;
62056;SDS011;48016;50.284;18.860;2022-10-16T00:51:21;23.40;;;16.70;;
62056;SDS011;48016;50.284;18.860;2022-10-16T00:53:51;23.90;;;16.60;;
62056;SDS011;48016;50.284;18.860;2022-10-16T00:56:18;24.40;;;18.50;;
62056;SDS011;48016;50.284;18.860;2022-10-16T00:58:45;25.00;;;18.40;;
62056;SDS011;48016;50.284;18.860;2022-10-16T01:01:11;24.70;;;17.40;;
62056;SDS011;48016;50.284;18.860;2022-10-16T01:03:38;25.90;;;18.20;;
62056;SDS011;48016;50.284;18.860;2022-10-16T01:06:08;25.90;;;17.60;;
62056;SDS011;48016;50.284;18.860;2022-10-16T01:09:11;25.30;;;18.20;;
62056;SDS011;48016;50.284;18.860;2022-10-16T01:11:51;20.40;;;15.40;;
62056;SDS011;48016;50.284;18.860;2022-10-16T01:14:32;24.00;;;16.50;;
62056;SDS011;48016;50.284;18.860;2022-10-16T01:17:12;23.80;;;15.50;;
62056;SDS011;48016;50.284;18.860;2022-10-16T01:22:53;22.90;;;14.70;;
62056;SDS011;48016;50.284;18.860;2022-10-16T01:25:36;22.90;;;14.50;;
62056;SDS011;48016;50.284;18.860;2022-10-16T01:28:19;22.70;;;15.20;;
62056;SDS011;48016;50.284;18.860;2022-10-16T01:30:50;20.30;;;14.00;;
62056;SDS011;48016;50.284;18.860;2022-10-16T01:33:24;23.10;;;14.90;;
62056;SDS011;48016;50.284;18.860;2022-10-16T01:35:58;20.20;;;13.70;;
62056;SDS011;48016;50.284;18.860;2022-10-16T01:38:30;19.40;;;14.40;;
62056;SDS011;48016;50.284;18.860;2022-10-16T01:41:06;19.70;;;14.50;;
62056;SDS011;48016;50.284;18.860;2022-10-16T01:43:39;20.20;;;13.50;;
62056;SDS011;48016;50.284;18.860;2022-10-16T01:46:11;19.50;;;13.50;;
62056;SDS011;48016;50.284;18.860;2022-10-16T01:48:40;20.90;;;13.90;;
62056;SDS011;48016;50.284;18.860;2022-10-16T01:51:08;20.70;;;13.90;;
62056;SDS011;48016;50.284;18.860;2022-10-16T01:53:38;20.10;;;13.90;;
62056;SDS011;48016;50.284;18.860;2022-10-16T01:56:09;22.30;;;14.80;;
62056;SDS011;48016;50.284;18.860;2022-10-16T01:58:40;21.30;;;14.50;;
62056;SDS011;48016;50.284;18.860;2022-10-16T02:01:12;21.30;;;15.80;;
62056;SDS011;48016;50.284;18.860;2022-10-16T02:03:44;21.50;;;13.90;;
62056;SDS011;48016;50.284;18.860;2022-10-16T02:06:12;18.60;;;14.00;;
62056;SDS011;48016;50.284;18.860;2022-10-16T02:08:39;24.40;;;15.20;;
62056;SDS011;48016;50.284;18.860;2022-10-16T02:11:10;20.20;;;13.20;;
62056;SDS011;48016;50.284;18.860;2022-10-16T02:13:38;21.70;;;14.30;;
62056;SDS011;48016;50.284;18.860;2022-10-16T02:16:11;21.30;;;14.30;;
62056;SDS011;48016;50.284;18.860;2022-10-16T02:18:40;26.40;;;18.30;;
62056;SDS011;48016;50.284;18.860;2022-10-16T02:21:13;22.90;;;15.20;;
62056;SDS011;48016;50.284;18.860;2022-10-16T02:26:57;23.60;;;15.90;;
62056;SDS011;48016;50.284;18.860;2022-10-16T02:29:31;27.70;;;16.80;;
62056;SDS011;48016;50.284;18.860;2022-10-16T02:32:01;22.80;;;15.40;;
62056;SDS011;48016;50.284;18.860;2022-10-16T02:34:30;28.00;;;15.50;;
62056;SDS011;48016;50.284;18.860;2022-10-16T02:36:59;23.90;;;15.30;;
62056;SDS011;48016;50.284;18.860;2022-10-16T02:39:28;25.00;;;16.70;;
62056;SDS011;48016;50.284;18.860;2022-10-16T02:41:55;25.40;;;16.80;;
62056;SDS011;48016;50.284;18.860;2022-10-16T02:44:22;23.70;;;16.50;;
62056;SDS011;48016;50.284;18.860;2022-10-16T02:46:48;27.40;;;17.80;;
62056;SDS011;48016;50.284;18.860;2022-10-16T02:49:15;27.50;;;18.20;;
62056;SDS011;48016;50.284;18.860;2022-10-16T02:51:42;29.60;;;18.10;;
62056;SDS011;48016;50.284;18.860;2022-10-16T02:54:08;26.50;;;17.30;;
62056;SDS011;48016;50.284;18.860;2022-10-16T02:56:35;25.10;;;16.40;;
62056;SDS011;48016;50.284;18.860;2022-10-16T02:59:01;27.00;;;17.40;;
62056;SDS011;48016;50.284;18.860;2022-10-16T03:01:27;28.00;;;17.80;;
62056;SDS011;48016;50.284;18.860;2022-10-16T03:03:54;28.70;;;18.00;;
62056;SDS011;48016;50.284;18.860;2022-10-16T03:06:21;31.10;;;19.40;;
62056;SDS011;48016;50.284;18.860;2022-10-16T03:08:47;30.80;;;19.70;;
62056;SDS011;48016;50.284;18.860;2022-10-16T03:11:14;30.20;;;19.20;;
62056;SDS011;48016;50.284;18.860;2022-10-16T03:13:40;31.30;;;18.60;;
62056;SDS011;48016;50.284;18.860;2022-10-16T03:16:07;29.90;;;18.30;;
62056;SDS011;48016;50.284;18.860;2022-10-16T03:18:33;31.70;;;20.20;;
62056;SDS011;48016;50.284;18.860;2022-10-16T03:21:00;29.80;;;18.40;;
62056;SDS011;48016;50.284;18.860;2022-10-16T03:23:27;29.10;;;18.90;;
62056;SDS011;48016;50.284;18.860;2022-10-16T03:25:53;29.90;;;18.90;;
62056;SDS011;48016;50.284;18.860;2022-10-16T03:28:20;28.90;;;19.30;;
62056;SDS011;48016;50.284;18.860;2022-10-16T03:30:46;30.80;;;18.60;;
62056;SDS011;48016;50.284;18.860;2022-10-16T03:33:13;28.00;;;18.10;;
62056;SDS011;48016;50.284;18.860;2022-10-16T03:35:39;25.40;;;18.50;;
62056;SDS011;48016;50.284;18.860;2022-10-16T03:38:06;26.30;;;17.30;;
62056;SDS011;48016;50.284;18.860;2022-10-16T03:40:32;25.10;;;15.70;;
62056;SDS011;48016;50.284;18.860;2022-10-16T03:42:59;27.70;;;16.50;;
62056;SDS011;48016;50.284;18.860;2022-10-16T03:45:26;27.80;;;18.20;;
62056;SDS011;48016;50.284;18.860;2022-10-16T03:47:53;29.40;;;18.60;;
62056;SDS011;48016;50.284;18.860;2022-10-16T03:50:19;27.00;;;19.00;;
62056;SDS011;48016;50.284;18.860;2022-10-16T03:52:46;30.30;;;18.70;;
62056;SDS011;48016;50.284;18.860;2022-10-16T03:55:12;27.80;;;19.10;;
62056;SDS011;48016;50.284;18.860;2022-10-16T03:57:39;26.60;;;17.80;;
62056;SDS011;48016;50.284;18.860;2022-10-16T04:00:06;30.40;;;17.30;;
62056;SDS011;48016;50.284;18.860;2022-10-16T04:02:32;29.60;;;19.00;;
62056;SDS011;48016;50.284;18.860;2022-10-16T04:04:59;28.10;;;18.50;;
62056;SDS011;48016;50.284;18.860;2022-10-16T04:07:25;31.00;;;20.20;;
62056;SDS011;48016;50.284;18.860;2022-10-16T04:09:52;27.10;;;19.90;;
62056;SDS011;48016;50.284;18.860;2022-10-16T04:12:19;34.10;;;19.40;;
62056;SDS011;48016;50.284;18.860;2022-10-16T04:14:45;29.20;;;20.00;;
62056;SDS011;48016;50.284;18.860;2022-10-16T04:17:12;30.00;;;19.60;;
62056;SDS011;48016;50.284;18.860;2022-10-16T04:19:38;27.30;;;18.90;;
62056;SDS011;48016;50.284;18.860;2022-10-16T04:22:05;27.30;;;18.10;;
62056;SDS011;48016;50.284;18.860;2022-10-16T04:24:31;34.00;;;21.30;;
62056;SDS011;48016;50.284;18.860;2022-10-16T04:26:58;41.30;;;26.30;;
62056;SDS011;48016;50.284;18.860;2022-10-16T04:29:25;31.60;;;21.30;;
62056;SDS011;48016;50.284;18.860;2022-10-16T04:31:51;32.20;;;20.30;;
62056;SDS011;48016;50.284;18.860;2022-10-16T04:34:17;36.70;;;23.30;;
62056;SDS011;48016;50.284;18.860;2022-10-16T04:36:46;38.30;;;25.40;;
62056;SDS011;48016;50.284;18.860;2022-10-16T04:39:13;38.40;;;23.90;;
62056;SDS011;48016;50.284;18.860;2022-10-16T04:41:40;39.20;;;24.00;;
62056;SDS011;48016;50.284;18.860;2022-10-16T04:44:07;33.10;;;23.30;;
62056;SDS011;48016;50.284;18.860;2022-10-16T04:46:33;38.10;;;24.20;;
62056;SDS011;48016;50.284;18.860;2022-10-16T04:49:00;38.00;;;24.90;;
62056;SDS011;48016;50.284;18.860;2022-10-16T04:51:26;33.50;;;22.20;;
62056;SDS011;48016;50.284;18.860;2022-10-16T04:53:54;37.10;;;24.10;;
62056;SDS011;48016;50.284;18.860;2022-10-16T04:56:21;34.10;;;22.00;;
62056;SDS011;48016;50.284;18.860;2022-10-16T04:58:47;26.80;;;17.50;;
62056;SDS011;48016;50.284;18.860;2022-10-16T05:01:14;27.80;;;17.10;;
62056;SDS011;48016;50.284;18.860;2022-10-16T05:03:41;28.40;;;18.20;;
62056;SDS011;48016;50.284;18.860;2022-10-16T05:06:07;27.30;;;18.30;;
62056;SDS011;48016;50.284;18.860;2022-10-16T05:08:34;28.00;;;18.10;;
62056;SDS011;48016;50.284;18.860;2022-10-16T05:11:00;29.10;;;17.70;;
62056;SDS011;48016;50.284;18.860;2022-10-16T05:13:27;30.80;;;18.10;;
62056;SDS011;48016;50.284;18.860;2022-10-16T05:15:54;28.60;;;17.90;;
62056;SDS011;48016;50.284;18.860;2022-10-16T05:18:20;32.00;;;18.90;;
62056;SDS011;48016;50.284;18.860;2022-10-16T05:20:47;28.40;;;16.90;;
62056;SDS011;48016;50.284;18.860;2022-10-16T05:23:13;29.40;;;17.90;;
62056;SDS011;48016;50.284;18.860;2022-10-16T05:25:40;36.60;;;19.50;;
62056;SDS011;48016;50.284;18.860;2022-10-16T05:28:06;26.30;;;16.90;;
62056;SDS011;48016;50.284;18.860;2022-10-16T05:30:33;26.90;;;16.60;;
62056;SDS011;48016;50.284;18.860;2022-10-16T05:32:59;23.90;;;16.90;;
62056;SDS011;48016;50.284;18.860;2022-10-16T05:35:26;29.10;;;17.70;;
62056;SDS011;48016;50.284;18.860;2022-10-16T05:37:52;27.90;;;17.10;;
62056;SDS011;48016;50.284;18.860;2022-10-16T05:40:19;24.90;;;16.00;;
62056;SDS011;48016;50.284;18.860;2022-10-16T05:42:45;25.80;;;16.50;;
62056;SDS011;48016;50.284;18.860;2022-10-16T05:45:12;31.00;;;17.80;;
62056;SDS011;48016;50.284;18.860;2022-10-16T05:47:38;29.90;;;18.50;;
62056;SDS011;48016;50.284;18.860;2022-10-16T05:50:05;28.50;;;17.40;;
62056;SDS011;48016;50.284;18.860;2022-10-16T05:52:32;28.00;;;17.80;;
62056;SDS011;48016;50.284;18.860;2022-10-16T05:54:59;28.80;;;18.50;;
62056;SDS011;48016;50.284;18.860;2022-10-16T05:57:25;25.80;;;15.90;;
62056;SDS011;48016;50.284;18.860;2022-10-16T05:59:51;29.30;;;16.60;;
62056;SDS011;48016;50.284;18.860;2022-10-16T06:02:18;24.70;;;16.00;;
62056;SDS011;48016;50.284;18.860;2022-10-16T06:04:44;26.50;;;17.50;;
62056;SDS011;48016;50.284;18.860;2022-10-16T06:07:11;23.40;;;15.30;;
62056;SDS011;48016;50.284;18.860;2022-10-16T06:09:37;23.40;;;15.10;;
62056;SDS011;48016;50.284;18.860;2022-10-16T06:12:04;24.70;;;15.30;;
62056;SDS011;48016;50.284;18.860;2022-10-16T06:14:30;26.10;;;17.70;;
62056;SDS011;48016;50.284;18.860;2022-10-16T06:16:57;25.60;;;17.60;;
62056;SDS011;48016;50.284;18.860;2022-10-16T06:19:23;27.80;;;19.40;;
62056;SDS011;48016;50.284;18.860;2022-10-16T06:21:50;32.20;;;20.00;;
62056;SDS011;48016;50.284;18.860;2022-10-16T06:24:16;27.00;;;17.20;;
62056;SDS011;48016;50.284;18.860;2022-10-16T06:26:43;28.30;;;17.40;;
62056;SDS011;48016;50.284;18.860;2022-10-16T06:29:09;25.10;;;16.70;;
62056;SDS011;48016;50.284;18.860;2022-10-16T06:31:36;25.10;;;16.80;;
62056;SDS011;48016;50.284;18.860;2022-10-16T06:34:02;27.50;;;16.10;;
62056;SDS011;48016;50.284;18.860;2022-10-16T06:36:30;25.70;;;15.10;;
62056;SDS011;48016;50.284;18.860;2022-10-16T06:38:57;24.80;;;16.60;;
62056;SDS011;48016;50.284;18.860;2022-10-16T06:41:23;24.30;;;16.40;;
62056;SDS011;48016;50.284;18.860;2022-10-16T06:43:50;24.50;;;15.60;;
62056;SDS011;48016;50.284;18.860;2022-10-16T06:46:19;23.70;;;15.50;;
62056;SDS011;48016;50.284;18.860;2022-10-16T06:48:48;25.20;;;15.40;;
62056;SDS011;48016;50.284;18.860;2022-10-16T06:51:16;23.40;;;14.30;;
62056;SDS011;48016;50.284;18.860;2022-10-16T06:53:44;20.40;;;14.30;;
62056;SDS011;48016;50.284;18.860;2022-10-16T06:56:16;20.30;;;13.30;;
62056;SDS011;48016;50.284;18.860;2022-10-16T06:58:43;20.40;;;13.60;;
62056;SDS011;48016;50.284;18.860;2022-10-16T07:01:11;22.60;;;13.60;;
62056;SDS011;48016;50.284;18.860;2022-10-16T07:03:42;22.50;;;15.40;;
62056;SDS011;48016;50.284;18.860;2022-10-16T07:06:10;25.80;;;15.50;;
62056;SDS011;48016;50.284;18.860;2022-10-16T07:08:39;25.10;;;15.40;;
62056;SDS011;48016;50.284;18.860;2022-10-16T07:11:14;22.20;;;15.50;;
62056;SDS011;48016;50.284;18.860;2022-10-16T07:13:43;21.80;;;15.00;;
62056;SDS011;48016;50.284;18.860;2022-10-16T07:16:12;24.30;;;15.70;;
62056;SDS011;48016;50.284;18.860;2022-10-16T07:18:40;27.40;;;16.80;;
62056;SDS011;48016;50.284;18.860;2022-10-16T07:21:10;28.40;;;17.40;;
62056;SDS011;48016;50.284;18.860;2022-10-16T07:23:41;24.30;;;15.10;;
62056;SDS011;48016;50.284;18.860;2022-10-16T07:26:08;22.60;;;15.60;;
62056;SDS011;48016;50.284;18.860;2022-10-16T07:28:36;22.20;;;15.70;;
62056;SDS011;48016;50.284;18.860;2022-10-16T07:33:32;24.40;;;16.00;;
62056;SDS011;48016;50.284;18.860;2022-10-16T07:35:59;27.10;;;17.50;;
62056;SDS011;48016;50.284;18.860;2022-10-16T07:38:26;23.70;;;15.20;;
62056;SDS011;48016;50.284;18.860;2022-10-16T07:40:56;27.80;;;16.50;;
62056;SDS011;48016;50.284;18.860;2022-10-16T07:43:24;23.90;;;16.60;;
62056;SDS011;48016;50.284;18.860;2022-10-16T07:45:51;27.80;;;16.40;;
62056;SDS011;48016;50.284;18.860;2022-10-16T07:48:18;24.40;;;16.40;;
62056;SDS011;48016;50.284;18.860;2022-10-16T07:50:45;25.80;;;15.50;;
62056;SDS011;48016;50.284;18.860;2022-10-16T07:53:12;21.60;;;14.70;;
62056;SDS011;48016;50.284;18.860;2022-10-16T07:55:39;21.00;;;13.70;;
62056;SDS011;48016;50.284;18.860;2022-10-16T07:58:06;21.60;;;14.50;;
62056;SDS011;48016;50.284;18.860;2022-10-16T08:00:33;28.30;;;15.30;;
62056;SDS011;48016;50.284;18.860;2022-10-16T08:03:01;20.40;;;12.90;;
62056;SDS011;48016;50.284;18.860;2022-10-16T08:05:28;19.60;;;13.40;;
62056;SDS011;48016;50.284;18.860;2022-10-16T08:07:56;22.30;;;14.30;;
62056;SDS011;48016;50.284;18.860;2022-10-16T08:10:23;15.30;;;11.40;;
62056;SDS011;48016;50.284;18.860;2022-10-16T08:12:51;17.60;;;12.50;;
62056;SDS011;48016;50.284;18.860;2022-10-16T08:17:58;16.80;;;12.10;;
62056;SDS011;48016;50.284;18.860;2022-10-16T08:20:29;22.00;;;13.30;;
62056;SDS011;48016;50.284;18.860;2022-10-16T08:22:57;19.20;;;14.10;;
62056;SDS011;48016;50.284;18.860;2022-10-16T08:25:24;19.60;;;13.30;;
62056;SDS011;48016;50.284;18.860;2022-10-16T08:27:51;18.70;;;12.50;;
62056;SDS011;48016;50.284;18.860;2022-10-16T08:30:18;18.40;;;12.60;;
62056;SDS011;48016;50.284;18.860;2022-10-16T08:32:46;17.50;;;12.30;;
62056;SDS011;48016;50.284;18.860;2022-10-16T08:35:13;18.90;;;11.50;;
62056;SDS011;48016;50.284;18.860;2022-10-16T08:37:41;14.20;;;10.50;;
62056;SDS011;48016;50.284;18.860;2022-10-16T08:40:15;16.10;;;10.70;;
62056;SDS011;48016;50.284;18.860;2022-10-16T08:51:06;16.20;;;11.70;;
62056;SDS011;48016;50.284;18.860;2022-10-16T08:53:41;19.70;;;12.80;;
62056;SDS011;48016;50.284;18.860;2022-10-16T08:56:17;16.00;;;11.20;;
62056;SDS011;48016;50.284;18.860;2022-10-16T08:58:44;15.60;;;12.10;;
62056;SDS011;48016;50.284;18.860;2022-10-16T09:01:13;18.30;;;12.50;;
62056;SDS011;48016;50.284;18.860;2022-10-16T09:06:41;19.50;;;14.10;;
62056;SDS011;48016;50.284;18.860;2022-10-16T09:09:20;21.70;;;14.00;;
62056;SDS011;48016;50.284;18.860;2022-10-16T09:12:01;16.50;;;12.40;;
62056;SDS011;48016;50.284;18.860;2022-10-16T09:25:42;13.30;;;10.70;;
62056;SDS011;48016;50.284;18.860;2022-10-16T09:28:11;14.60;;;11.60;;
62056;SDS011;48016;50.284;18.860;2022-10-16T09:30:37;15.40;;;10.90;;
62056;SDS011;48016;50.284;18.860;2022-10-16T09:33:06;15.80;;;11.80;;
62056;SDS011;48016;50.284;18.860;2022-10-16T09:35:36;16.50;;;11.50;;
62056;SDS011;48016;50.284;18.860;2022-10-16T09:38:05;18.10;;;12.20;;
62056;SDS011;48016;50.284;18.860;2022-10-16T09:40:37;15.40;;;12.30;;
62056;SDS011;48016;50.284;18.860;2022-10-16T09:45:40;15.10;;;10.20;;
62056;SDS011;48016;50.284;18.860;2022-10-16T09:48:11;14.90;;;10.90;;
62056;SDS011;48016;50.284;18.860;2022-10-16T09:50:38;14.10;;;10.50;;
62056;SDS011;48016;50.284;18.860;2022-10-16T09:53:11;12.50;;;9.60;;
62056;SDS011;48016;50.284;18.860;2022-10-16T09:55:51;14.50;;;11.40;;
62056;SDS011;48016;50.284;18.860;2022-10-16T09:58:22;13.70;;;9.50;;
62056;SDS011;48016;50.284;18.860;2022-10-16T10:00:51;13.10;;;10.00;;
62056;SDS011;48016;50.284;18.860;2022-10-16T10:06:17;18.00;;;10.80;;
62056;SDS011;48016;50.284;18.860;2022-10-16T10:14:30;16.90;;;11.20;;
62056;SDS011;48016;50.284;18.860;2022-10-16T10:19:46;12.70;;;9.90;;
62056;SDS011;48016;50.284;18.860;2022-10-16T10:22:23;12.60;;;9.50;;
62056;SDS011;48016;50.284;18.860;2022-10-16T10:35:42;14.40;;;10.00;;
62056;SDS011;48016;50.284;18.860;2022-10-16T10:38:20;14.40;;;10.60;;
62056;SDS011;48016;50.284;18.860;2022-10-16T10:43:39;15.60;;;10.40;;
62056;SDS011;48016;50.284;18.860;2022-10-16T10:54:57;15.90;;;11.60;;
62056;SDS011;48016;50.284;18.860;2022-10-16T11:05:52;14.30;;;10.60;;
62056;SDS011;48016;50.284;18.860;2022-10-16T11:11:02;13.40;;;10.00;;
62056;SDS011;48016;50.284;18.860;2022-10-16T11:16:23;14.70;;;10.70;;
62056;SDS011;48016;50.284;18.860;2022-10-16T11:22:06;16.90;;;10.40;;
62056;SDS011;48016;50.284;18.860;2022-10-16T11:36:11;15.60;;;11.30;;
62056;SDS011;48016;50.284;18.860;2022-10-16T11:38:50;15.00;;;11.00;;
62056;SDS011;48016;50.284;18.860;2022-10-16T11:41:44;14.50;;;10.10;;
62056;SDS011;48016;50.284;18.860;2022-10-16T11:49:43;14.20;;;11.00;;
62056;SDS011;48016;50.284;18.860;2022-10-16T11:52:27;16.80;;;11.60;;
62056;SDS011;48016;50.284;18.860;2022-10-16T11:57:47;15.00;;;10.70;;
62056;SDS011;48016;50.284;18.860;2022-10-16T12:00:20;16.70;;;11.60;;
62056;SDS011;48016;50.284;18.860;2022-10-16T12:08:17;16.00;;;11.30;;
62056;SDS011;48016;50.284;18.860;2022-10-16T12:10:44;15.80;;;11.00;;
62056;SDS011;48016;50.284;18.860;2022-10-16T12:18:42;14.80;;;10.00;;
62056;SDS011;48016;50.284;18.860;2022-10-16T12:21:11;12.40;;;10.30;;
62056;SDS011;48016;50.284;18.860;2022-10-16T12:23:55;13.50;;;10.80;;
62056;SDS011;48016;50.284;18.860;2022-10-16T12:26:25;15.80;;;10.10;;
62056;SDS011;48016;50.284;18.860;2022-10-16T12:28:57;14.30;;;11.70;;
62056;SDS011;48016;50.284;18.860;2022-10-16T12:31:43;14.90;;;11.70;;
62056;SDS011;48016;50.284;18.860;2022-10-16T12:39:47;14.40;;;10.70;;
62056;SDS011;48016;50.284;18.860;2022-10-16T12:44:54;14.00;;;10.60;;
62056;SDS011;48016;50.284;18.860;2022-10-16T12:47:35;11.30;;;9.80;;
62056;SDS011;48016;50.284;18.860;2022-10-16T12:50:22;13.20;;;10.00;;
62056;SDS011;48016;50.284;18.860;2022-10-16T12:52:54;15.00;;;10.50;;
62056;SDS011;48016;50.284;18.860;2022-10-16T12:55:21;14.90;;;10.60;;
62056;SDS011;48016;50.284;18.860;2022-10-16T12:58:00;12.80;;;10.60;;
62056;SDS011;48016;50.284;18.860;2022-10-16T13:00:39;16.10;;;12.00;;
62056;SDS011;48016;50.284;18.860;2022-10-16T13:13:50;15.70;;;10.80;;
62056;SDS011;48016;50.284;18.860;2022-10-16T13:16:24;14.90;;;11.00;;
62056;SDS011;48016;50.284;18.860;2022-10-16T13:21:33;13.00;;;10.20;;
62056;SDS011;48016;50.284;18.860;2022-10-16T13:24:18;13.20;;;10.30;;
62056;SDS011;48016;50.284;18.860;2022-10-16T13:26:55;13.20;;;10.60;;
62056;SDS011;48016;50.284;18.860;2022-10-16T13:29:30;15.50;;;10.70;;
62056;SDS011;48016;50.284;18.860;2022-10-16T13:31:59;16.10;;;10.20;;
62056;SDS011;48016;50.284;18.860;2022-10-16T13:34:28;14.50;;;10.90;;
62056;SDS011;48016;50.284;18.860;2022-10-16T13:36:55;13.00;;;10.00;;
62056;SDS011;48016;50.284;18.860;2022-10-16T13:39:22;14.30;;;10.90;;
62056;SDS011;48016;50.284;18.860;2022-10-16T13:44:26;12.20;;;9.90;;
62056;SDS011;48016;50.284;18.860;2022-10-16T13:47:02;15.40;;;10.20;;
62056;SDS011;48016;50.284;18.860;2022-10-16T13:49:29;17.80;;;11.10;;
62056;SDS011;48016;50.284;18.860;2022-10-16T13:51:56;14.00;;;10.40;;
62056;SDS011;48016;50.284;18.860;2022-10-16T13:54:24;17.90;;;10.60;;
62056;SDS011;48016;50.284;18.860;2022-10-16T13:56:52;13.70;;;10.40;;
62056;SDS011;48016;50.284;18.860;2022-10-16T14:01:51;16.40;;;11.50;;
62056;SDS011;48016;50.284;18.860;2022-10-16T14:04:20;16.90;;;12.80;;
62056;SDS011;48016;50.284;18.860;2022-10-16T14:06:49;20.70;;;13.30;;
62056;SDS011;48016;50.284;18.860;2022-10-16T14:09:21;18.00;;;13.30;;
62056;SDS011;48016;50.284;18.860;2022-10-16T14:11:52;16.90;;;13.20;;
62056;SDS011;48016;50.284;18.860;2022-10-16T14:14:34;18.50;;;12.70;;
62056;SDS011;48016;50.284;18.860;2022-10-16T14:17:13;16.30;;;11.50;;
62056;SDS011;48016;50.284;18.860;2022-10-16T14:19:50;14.10;;;11.00;;
62056;SDS011;48016;50.284;18.860;2022-10-16T14:24:59;18.80;;;12.60;;
62056;SDS011;48016;50.284;18.860;2022-10-16T14:27:34;18.30;;;12.60;;
62056;SDS011;48016;50.284;18.860;2022-10-16T14:30:19;16.60;;;11.90;;
62056;SDS011;48016;50.284;18.860;2022-10-16T14:33:22;15.90;;;11.90;;
62056;SDS011;48016;50.284;18.860;2022-10-16T14:38:35;17.50;;;12.80;;
62056;SDS011;48016;50.284;18.860;2022-10-16T14:41:04;15.50;;;11.60;;
62056;SDS011;48016;50.284;18.860;2022-10-16T14:43:39;16.70;;;12.70;;
62056;SDS011;48016;50.284;18.860;2022-10-16T14:46:16;20.00;;;12.90;;
62056;SDS011;48016;50.284;18.860;2022-10-16T14:48:48;20.50;;;13.10;;
62056;SDS011;48016;50.284;18.860;2022-10-16T14:51:17;18.70;;;12.40;;
62056;SDS011;48016;50.284;18.860;2022-10-16T14:53:45;16.50;;;12.50;;
62056;SDS011;48016;50.284;18.860;2022-10-16T14:56:16;17.30;;;12.40;;
62056;SDS011;48016;50.284;18.860;2022-10-16T14:58:45;17.70;;;12.00;;
62056;SDS011;48016;50.284;18.860;2022-10-16T15:01:12;16.80;;;11.50;;
62056;SDS011;48016;50.284;18.860;2022-10-16T15:03:39;16.10;;;11.40;;
62056;SDS011;48016;50.284;18.860;2022-10-16T15:06:09;16.50;;;12.00;;
62056;SDS011;48016;50.284;18.860;2022-10-16T15:08:37;22.00;;;14.10;;
62056;SDS011;48016;50.284;18.860;2022-10-16T15:11:04;21.20;;;13.90;;
62056;SDS011;48016;50.284;18.860;2022-10-16T15:13:30;21.70;;;14.10;;
62056;SDS011;48016;50.284;18.860;2022-10-16T15:15:57;21.40;;;14.80;;
62056;SDS011;48016;50.284;18.860;2022-10-16T15:18:24;17.00;;;13.20;;
62056;SDS011;48016;50.284;18.860;2022-10-16T15:20:51;18.30;;;12.80;;
62056;SDS011;48016;50.284;18.860;2022-10-16T15:23:19;17.20;;;12.00;;
62056;SDS011;48016;50.284;18.860;2022-10-16T15:25:48;18.50;;;11.90;;
62056;SDS011;48016;50.284;18.860;2022-10-16T15:28:19;16.40;;;12.10;;
62056;SDS011;48016;50.284;18.860;2022-10-16T15:30:49;17.20;;;12.60;;
62056;SDS011;48016;50.284;18.860;2022-10-16T15:33:18;18.40;;;12.90;;
62056;SDS011;48016;50.284;18.860;2022-10-16T15:35:50;16.30;;;12.30;;
62056;SDS011;48016;50.284;18.860;2022-10-16T15:38:18;19.90;;;13.40;;
62056;SDS011;48016;50.284;18.860;2022-10-16T15:40:47;18.00;;;13.40;;
62056;SDS011;48016;50.284;18.860;2022-10-16T15:43:15;19.20;;;12.40;;
62056;SDS011;48016;50.284;18.860;2022-10-16T15:45:41;21.10;;;13.20;;
62056;SDS011;48016;50.284;18.860;2022-10-16T15:48:11;20.90;;;13.90;;
62056;SDS011;48016;50.284;18.860;2022-10-16T15:50:40;19.10;;;13.40;;
62056;SDS011;48016;50.284;18.860;2022-10-16T15:53:06;19.50;;;13.20;;
62056;SDS011;48016;50.284;18.860;2022-10-16T15:55:33;19.10;;;14.10;;
62056;SDS011;48016;50.284;18.860;2022-10-16T15:58:00;19.50;;;13.80;;
62056;SDS011;48016;50.284;18.860;2022-10-16T16:00:27;21.80;;;15.80;;
62056;SDS011;48016;50.284;18.860;2022-10-16T16:02:54;21.10;;;15.00;;
62056;SDS011;48016;50.284;18.860;2022-10-16T16:05:22;20.00;;;15.20;;
62056;SDS011;48016;50.284;18.860;2022-10-16T16:07:49;24.70;;;14.80;;
62056;SDS011;48016;50.284;18.860;2022-10-16T16:10:16;21.20;;;14.80;;
62056;SDS011;48016;50.284;18.860;2022-10-16T16:15:15;22.00;;;15.40;;
62056;SDS011;48016;50.284;18.860;2022-10-16T16:17:42;24.50;;;15.10;;
62056;SDS011;48016;50.284;18.860;2022-10-16T16:20:10;23.00;;;16.00;;
62056;SDS011;48016;50.284;18.860;2022-10-16T16:22:37;23.80;;;17.00;;
62056;SDS011;48016;50.284;18.860;2022-10-16T16:25:04;24.50;;;17.30;;
62056;SDS011;48016;50.284;18.860;2022-10-16T16:27:31;23.60;;;17.00;;
62056;SDS011;48016;50.284;18.860;2022-10-16T16:30:02;25.00;;;18.00;;
62056;SDS011;48016;50.284;18.860;2022-10-16T16:32:29;25.00;;;18.10;;
62056;SDS011;48016;50.284;18.860;2022-10-16T16:37:23;26.90;;;19.10;;
62056;SDS011;48016;50.284;18.860;2022-10-16T16:39:50;29.70;;;19.80;;
62056;SDS011;48016;50.284;18.860;2022-10-16T16:42:17;28.80;;;20.00;;
62056;SDS011;48016;50.284;18.860;2022-10-16T16:44:43;30.40;;;21.20;;
62056;SDS011;48016;50.284;18.860;2022-10-16T16:47:09;31.40;;;21.40;;
62056;SDS011;48016;50.284;18.860;2022-10-16T16:49:36;36.70;;;21.40;;
62056;SDS011;48016;50.284;18.860;2022-10-16T16:52:03;32.90;;;20.80;;
62056;SDS011;48016;50.284;18.860;2022-10-16T16:54:30;48.70;;;27.10;;
62056;SDS011;48016;50.284;18.860;2022-10-16T16:56:56;47.80;;;28.10;;